createdAt,value
2023-03-10T00:01:22.838Z,7.10
2023-03-10T00:03:49.907Z,7.60
2023-03-10T00:06:19.310Z,8.30
2023-03-10T00:08:46.508Z,8.20
2023-03-10T00:11:13.893Z,9.00
2023-03-10T00:13:41.132Z,9.60
2023-03-10T00:16:08.755Z,9.80
2023-03-10T00:18:35.657Z,9.40
2023-03-10T00:21:02.350Z,8.00
2023-03-10T00:23:28.987Z,8.90
2023-03-10T00:25:57.751Z,9.00
2023-03-10T00:28:26.301Z,8.60
2023-03-10T00:31:19.079Z,9.20
2023-03-10T00:33:46.085Z,9.40
2023-03-10T00:36:16.307Z,8.10
2023-03-10T00:38:44.999Z,7.70
2023-03-10T00:41:14.224Z,8.40
2023-03-10T00:43:41.524Z,7.40
2023-03-10T00:46:09.091Z,8.00
2023-03-10T00:48:37.346Z,7.40
2023-03-10T00:51:04.500Z,7.70
2023-03-10T00:53:31.697Z,7.20
2023-03-10T00:55:59.333Z,7.20
2023-03-10T00:58:27.752Z,7.30
2023-03-10T01:00:55.354Z,6.90
2023-03-10T01:03:23.452Z,6.70
2023-03-10T01:05:52.003Z,7.10
2023-03-10T01:08:18.809Z,7.60
2023-03-10T01:10:46.373Z,7.20
2023-03-10T01:13:15.189Z,7.10
2023-03-10T01:15:44.746Z,7.20
2023-03-10T01:18:11.550Z,7.30
2023-03-10T01:20:38.146Z,6.90
2023-03-10T01:23:04.885Z,7.50
2023-03-10T01:25:31.459Z,6.80
2023-03-10T01:27:58.072Z,7.40
2023-03-10T01:30:24.703Z,5.80
2023-03-10T01:32:51.428Z,7.50
2023-03-10T01:35:18.393Z,7.60
2023-03-10T01:37:44.993Z,5.70
2023-03-10T01:40:18.852Z,8.00
2023-03-10T01:42:46.505Z,7.70
2023-03-10T01:45:15.957Z,7.70
2023-03-10T01:47:43.873Z,7.60
2023-03-10T01:50:14.084Z,7.80
2023-03-10T01:52:45.087Z,8.40
2023-03-10T01:55:15.689Z,8.50
2023-03-10T01:57:46.386Z,7.60
2023-03-10T02:00:14.772Z,8.30
2023-03-10T02:03:15.054Z,8.30
2023-03-10T02:05:53.626Z,7.20
2023-03-10T02:08:21.946Z,7.90
2023-03-10T02:10:50.093Z,8.10
2023-03-10T02:13:17.420Z,7.30
2023-03-10T02:15:44.593Z,8.30
2023-03-10T02:18:14.465Z,8.30
2023-03-10T02:21:00.522Z,8.70
2023-03-10T02:24:00.899Z,7.90
2023-03-10T02:26:43.761Z,9.10
2023-03-10T02:29:20.450Z,9.10
2023-03-10T02:31:48.496Z,9.20
2023-03-10T02:34:15.367Z,9.70
2023-03-10T02:36:42.512Z,9.50
2023-03-10T02:39:10.530Z,9.60
2023-03-10T02:41:39.832Z,8.30
2023-03-10T02:44:11.960Z,8.00
2023-03-10T02:46:38.696Z,8.00
2023-03-10T02:49:07.575Z,8.70
2023-03-10T02:51:44.253Z,8.90
2023-03-10T02:54:14.946Z,9.10
2023-03-10T02:56:42.999Z,7.60
2023-03-10T02:59:10.937Z,8.30
2023-03-10T03:01:41.307Z,8.80
2023-03-10T03:04:07.972Z,7.90
2023-03-10T03:06:36.297Z,8.40
2023-03-10T03:09:03.320Z,7.80
2023-03-10T03:11:30.308Z,8.10
2023-03-10T03:13:57.332Z,8.70
2023-03-10T03:16:24.840Z,8.40
2023-03-10T03:18:54.823Z,8.20
2023-03-10T03:21:21.947Z,8.60
2023-03-10T03:23:48.925Z,8.60
2023-03-10T03:26:20.520Z,8.80
2023-03-10T03:28:48.741Z,9.90
2023-03-10T03:31:23.617Z,9.80
2023-03-10T03:33:53.169Z,9.60
2023-03-10T03:36:20.647Z,9.90
2023-03-10T03:38:47.793Z,9.00
2023-03-10T03:41:15.886Z,8.80
2023-03-10T03:43:43.181Z,8.40
2023-03-10T03:46:10.025Z,7.60
2023-03-10T03:48:36.929Z,8.30
2023-03-10T03:51:04.473Z,7.40
2023-03-10T03:53:36.334Z,7.60
2023-03-10T03:56:03.585Z,8.70
2023-03-10T03:58:32.635Z,8.30
2023-03-10T04:00:59.278Z,6.50
2023-03-10T04:03:26.516Z,8.20
2023-03-10T04:05:53.425Z,8.20
2023-03-10T04:08:20.335Z,7.10
2023-03-10T04:10:55.620Z,9.30
2023-03-10T04:13:25.184Z,9.40
2023-03-10T04:15:59.143Z,8.40
2023-03-10T04:18:29.160Z,9.10
2023-03-10T04:20:56.307Z,8.30
2023-03-10T04:23:23.049Z,7.60
2023-03-10T04:25:49.997Z,8.00
2023-03-10T04:28:17.051Z,9.30
2023-03-10T04:30:46.274Z,10.70
2023-03-10T04:33:13.365Z,9.50
2023-03-10T04:35:44.780Z,9.70
2023-03-10T04:38:13.557Z,9.20
2023-03-10T04:40:40.502Z,8.50
2023-03-10T04:43:07.541Z,9.30
2023-03-10T04:45:34.217Z,9.40
2023-03-10T04:48:01.053Z,10.30
2023-03-10T04:50:28.178Z,9.80
2023-03-10T04:52:55.411Z,9.10
2023-03-10T04:55:25.884Z,9.30
2023-03-10T04:57:53.113Z,8.10
2023-03-10T05:00:20.384Z,9.60
2023-03-10T05:02:47.974Z,9.00
2023-03-10T05:05:14.619Z,9.70
2023-03-10T05:07:44.080Z,7.70
2023-03-10T05:10:11.945Z,8.70
2023-03-10T05:12:39.912Z,8.30
2023-03-10T05:15:08.187Z,10.10
2023-03-10T05:17:35.377Z,10.40
2023-03-10T05:20:04.230Z,9.30
2023-03-10T05:22:31.284Z,9.30
2023-03-10T05:24:57.939Z,10.40
2023-03-10T05:27:24.677Z,10.80
2023-03-10T05:29:52.021Z,11.00
2023-03-10T05:32:21.281Z,11.30
2023-03-10T05:34:48.512Z,8.70
2023-03-10T05:37:15.581Z,9.80
2023-03-10T05:39:43.922Z,9.40
2023-03-10T05:42:13.923Z,9.40
2023-03-10T05:44:41.253Z,9.30
2023-03-10T05:47:08.452Z,10.30
2023-03-10T05:49:38.522Z,8.30
2023-03-10T05:52:07.114Z,9.10
2023-03-10T05:54:33.752Z,9.60
2023-03-10T05:57:00.420Z,10.90
2023-03-10T05:59:27.560Z,10.30
2023-03-10T06:01:54.459Z,9.90
2023-03-10T06:04:21.227Z,12.10
2023-03-10T06:06:48.009Z,10.90
2023-03-10T06:09:14.643Z,11.60
2023-03-10T06:11:41.250Z,11.10
2023-03-10T06:14:07.944Z,11.90
2023-03-10T06:16:34.553Z,11.30
2023-03-10T06:19:01.203Z,11.00
2023-03-10T06:21:29.612Z,11.30
2023-03-10T06:23:56.737Z,9.30
2023-03-10T06:26:24.425Z,10.30
2023-03-10T06:28:52.513Z,10.30
2023-03-10T06:31:22.523Z,11.00
2023-03-10T06:33:49.249Z,9.90
2023-03-10T06:36:16.790Z,9.90
2023-03-10T06:38:43.910Z,11.20
2023-03-10T06:41:10.592Z,12.50
2023-03-10T06:43:37.545Z,12.60
2023-03-10T06:46:05.711Z,10.90
2023-03-10T06:48:32.880Z,11.60
2023-03-10T06:51:00.761Z,11.20
2023-03-10T06:53:27.751Z,11.50
2023-03-10T06:55:58.216Z,12.10
2023-03-10T06:58:24.977Z,10.70
2023-03-10T07:00:52.073Z,11.90
2023-03-10T07:03:19.219Z,10.90
2023-03-10T07:05:45.877Z,11.10
2023-03-10T07:08:12.515Z,12.00
2023-03-10T07:10:39.706Z,10.90
2023-03-10T07:13:06.898Z,11.80
2023-03-10T07:15:33.622Z,11.30
2023-03-10T07:18:00.329Z,11.20
2023-03-10T07:20:26.924Z,11.20
2023-03-10T07:22:53.569Z,11.40
2023-03-10T07:25:20.272Z,11.30
2023-03-10T07:27:46.877Z,10.90
2023-03-10T07:30:13.979Z,11.60
2023-03-10T07:32:40.766Z,11.40
2023-03-10T07:35:08.550Z,12.70
2023-03-10T07:37:39.192Z,12.70
2023-03-10T07:40:09.598Z,12.20
2023-03-10T07:42:36.222Z,12.20
2023-03-10T07:45:05.225Z,11.00
2023-03-10T07:47:32.020Z,12.90
2023-03-10T07:49:58.648Z,13.30
2023-03-10T07:52:25.884Z,13.40
2023-03-10T07:54:52.460Z,11.70
2023-03-10T07:57:19.197Z,9.90
2023-03-10T07:59:45.959Z,9.60
2023-03-10T08:02:14.751Z,10.30
2023-03-10T08:04:42.764Z,9.30
2023-03-10T08:07:09.883Z,8.80
2023-03-10T08:09:36.980Z,6.80
2023-03-10T08:12:04.640Z,8.90
2023-03-10T08:14:32.166Z,9.90
2023-03-10T08:16:59.195Z,11.10
2023-03-10T08:19:27.888Z,7.80
2023-03-10T08:21:56.548Z,9.80
2023-03-10T08:27:09.048Z,9.40
2023-03-10T08:29:36.728Z,9.70
2023-03-10T08:32:03.554Z,10.50
2023-03-10T08:34:36.810Z,9.50
2023-03-10T08:37:04.238Z,9.60
2023-03-10T08:39:30.861Z,9.50
2023-03-10T08:41:57.486Z,7.00
2023-03-10T08:44:24.085Z,8.30
2023-03-10T08:46:51.199Z,6.60
2023-03-10T08:49:20.339Z,7.60
2023-03-10T08:51:47.631Z,6.40
2023-03-10T08:54:18.063Z,7.50
2023-03-10T08:56:44.756Z,6.30
2023-03-10T08:59:11.483Z,7.20
2023-03-10T09:01:38.429Z,7.70
2023-03-10T09:04:07.084Z,7.90
2023-03-10T09:06:34.468Z,7.70
2023-03-10T09:09:01.515Z,7.40
2023-03-10T09:11:32.635Z,6.90
2023-03-10T09:14:02.369Z,7.00
2023-03-10T09:16:29.922Z,6.60
2023-03-10T09:18:58.868Z,6.70
2023-03-10T09:21:26.513Z,5.80
2023-03-10T09:23:53.298Z,6.10
2023-03-10T09:26:21.076Z,7.60
2023-03-10T09:28:49.718Z,6.40
2023-03-10T09:31:19.650Z,6.30
2023-03-10T09:33:48.277Z,6.00
2023-03-10T09:36:16.959Z,6.10
2023-03-10T09:38:44.292Z,7.20
2023-03-10T09:41:30.602Z,7.00
2023-03-10T09:44:16.974Z,5.20
2023-03-10T09:47:01.864Z,5.50
2023-03-10T09:49:37.506Z,5.40
2023-03-10T09:52:28.182Z,6.10
2023-03-10T09:55:06.208Z,5.70
2023-03-10T09:57:34.922Z,5.00
2023-03-10T10:00:08.909Z,3.90
2023-03-10T10:02:41.731Z,4.60
2023-03-10T10:05:26.027Z,4.50
2023-03-10T10:07:57.554Z,4.40
2023-03-10T10:10:28.380Z,3.20
2023-03-10T10:13:00.704Z,3.20
2023-03-10T10:15:34.932Z,3.10
2023-03-10T10:18:29.273Z,3.20
2023-03-10T10:21:13.070Z,4.10
2023-03-10T10:26:24.250Z,4.00
2023-03-10T10:28:54.708Z,4.50
2023-03-10T10:31:27.611Z,5.10
2023-03-10T10:34:03.945Z,3.10
2023-03-10T10:36:35.938Z,4.10
2023-03-10T10:39:06.068Z,2.80
2023-03-10T10:41:34.851Z,3.70
2023-03-10T10:44:14.534Z,4.20
2023-03-10T10:46:55.006Z,5.90
2023-03-10T10:49:27.881Z,5.00
2023-03-10T10:52:00.756Z,5.40
2023-03-10T10:54:42.069Z,5.90
2023-03-10T10:57:18.572Z,5.90
2023-03-10T10:59:45.197Z,7.60
2023-03-10T11:02:31.115Z,5.30
2023-03-10T11:05:13.940Z,5.00
2023-03-10T11:07:40.562Z,4.90
2023-03-10T11:10:14.457Z,5.10
2023-03-10T11:13:00.568Z,4.20
2023-03-10T11:15:36.615Z,4.20
2023-03-10T11:18:15.451Z,3.70
2023-03-10T11:21:11.526Z,4.70
2023-03-10T11:24:12.553Z,5.30
2023-03-10T11:26:55.324Z,4.70
2023-03-10T11:29:40.215Z,5.20
2023-03-10T11:32:29.929Z,3.50
2023-03-10T11:34:58.273Z,3.90
2023-03-10T11:37:39.480Z,5.30
2023-03-10T11:40:24.250Z,4.90
2023-03-10T11:42:56.776Z,5.30
2023-03-10T11:45:54.628Z,5.10
2023-03-10T11:48:51.992Z,5.80
2023-03-10T11:51:53.941Z,3.90
2023-03-10T11:54:27.111Z,3.40
2023-03-10T11:56:55.495Z,4.70
2023-03-10T11:59:24.753Z,5.20
2023-03-10T12:01:59.309Z,5.40
2023-03-10T12:04:44.356Z,5.00
2023-03-10T12:07:23.781Z,4.60
2023-03-10T12:09:54.286Z,6.10
2023-03-10T12:12:30.968Z,3.90
2023-03-10T12:15:00.986Z,4.60
2023-03-10T12:17:29.140Z,5.30
2023-03-10T12:20:24.285Z,6.40
2023-03-10T12:22:59.299Z,5.60
2023-03-10T12:25:37.596Z,6.80
2023-03-10T12:28:24.568Z,6.50
2023-03-10T12:31:15.453Z,6.50
2023-03-10T12:33:45.050Z,6.70
2023-03-10T12:36:31.929Z,4.70
2023-03-10T12:39:38.564Z,7.10
2023-03-10T12:42:30.099Z,7.20
2023-03-10T12:45:05.711Z,7.50
2023-03-10T12:47:54.178Z,6.80
2023-03-10T12:50:29.732Z,6.60
2023-03-10T12:53:13.244Z,6.80
2023-03-10T12:55:43.599Z,7.80
2023-03-10T12:58:23.412Z,7.90
2023-03-10T13:00:59.012Z,7.20
2023-03-10T13:03:46.694Z,7.00
2023-03-10T13:06:13.345Z,7.90
2023-03-10T13:08:42.076Z,7.60
2023-03-10T13:11:42.976Z,7.30
2023-03-10T13:14:18.284Z,6.90
2023-03-10T13:16:56.543Z,6.70
2023-03-10T13:19:25.157Z,7.80
2023-03-10T13:21:52.547Z,8.40
2023-03-10T13:24:22.138Z,7.50
2023-03-10T13:26:48.765Z,7.80
2023-03-10T13:29:20.503Z,8.00
2023-03-10T13:34:23.607Z,6.30
2023-03-10T13:36:50.237Z,6.20
2023-03-10T13:39:21.797Z,6.90
2023-03-10T13:41:52.294Z,5.90
2023-03-10T13:44:25.628Z,5.90
2023-03-10T13:47:01.034Z,4.80
2023-03-10T13:49:32.224Z,6.60
2023-03-10T13:52:05.061Z,6.50
2023-03-10T13:54:32.972Z,5.40
2023-03-10T13:57:24.289Z,6.60
2023-03-10T13:59:52.476Z,6.40
2023-03-10T14:02:31.374Z,5.60
2023-03-10T14:04:58.617Z,6.40
2023-03-10T14:07:26.751Z,5.20
2023-03-10T14:10:05.804Z,5.30
2023-03-10T14:12:47.873Z,5.90
2023-03-10T14:15:14.466Z,5.20
2023-03-10T14:17:43.212Z,5.60
2023-03-10T14:20:12.017Z,6.20
2023-03-10T14:22:43.724Z,5.10
2023-03-10T14:25:18.781Z,4.60
2023-03-10T14:27:55.107Z,4.40
2023-03-10T14:30:28.214Z,4.70
2023-03-10T14:32:56.323Z,4.60
2023-03-10T14:35:24.196Z,5.40
2023-03-10T14:37:52.289Z,4.60
2023-03-10T14:40:22.347Z,5.70
2023-03-10T14:42:54.561Z,5.80
2023-03-10T14:45:27.550Z,5.10
2023-03-10T14:47:57.799Z,5.40
2023-03-10T14:50:25.964Z,4.40
2023-03-10T14:52:52.674Z,5.20
2023-03-10T14:55:19.401Z,4.30
2023-03-10T14:57:48.256Z,4.00
2023-03-10T15:00:19.971Z,5.40
2023-03-10T15:02:48.038Z,3.50
2023-03-10T15:05:17.572Z,5.20
2023-03-10T15:07:45.215Z,5.70
2023-03-10T15:10:13.135Z,3.80
2023-03-10T15:12:41.455Z,6.30
2023-03-10T15:15:16.400Z,5.80
2023-03-10T15:17:43.132Z,5.80
2023-03-10T15:20:30.321Z,4.80
2023-03-10T15:22:57.062Z,5.40
2023-03-10T15:25:23.777Z,5.10
2023-03-10T15:27:53.084Z,6.80
2023-03-10T15:30:37.703Z,4.30
2023-03-10T15:33:04.521Z,5.20
2023-03-10T15:35:32.109Z,4.10
2023-03-10T15:37:59.092Z,4.90
2023-03-10T15:40:28.654Z,4.30
2023-03-10T15:42:57.453Z,4.70
2023-03-10T15:45:26.779Z,6.40
2023-03-10T15:47:53.730Z,5.00
2023-03-10T15:50:21.638Z,7.30
2023-03-10T15:52:53.577Z,7.90
2023-03-10T15:55:20.688Z,7.50
2023-03-10T15:57:50.501Z,6.50
2023-03-10T16:00:20.596Z,7.00
2023-03-10T16:02:48.265Z,4.10
2023-03-10T16:05:15.774Z,6.10
2023-03-10T16:07:42.413Z,7.80
2023-03-10T16:10:10.873Z,6.40
2023-03-10T16:12:37.526Z,6.90
2023-03-10T16:15:04.597Z,8.40
2023-03-10T16:17:31.567Z,8.30
2023-03-10T16:20:02.172Z,7.20
2023-03-10T16:22:28.800Z,5.10
2023-03-10T16:24:55.448Z,6.00
2023-03-10T16:27:22.102Z,6.10
2023-03-10T16:29:48.745Z,9.70
2023-03-10T16:32:17.809Z,7.00
2023-03-10T16:34:44.393Z,8.50
2023-03-10T16:37:11.227Z,7.50
2023-03-10T16:39:38.110Z,7.90
2023-03-10T16:42:04.913Z,8.50
2023-03-10T16:44:31.471Z,7.80
2023-03-10T16:46:58.074Z,5.90
2023-03-10T16:49:25.023Z,9.90
2023-03-10T16:51:51.645Z,10.50
2023-03-10T16:54:21.513Z,8.80
2023-03-10T16:56:53.277Z,5.60
2023-03-10T16:59:24.823Z,10.80
2023-03-10T17:01:51.939Z,10.50
2023-03-10T17:04:19.937Z,7.80
2023-03-10T17:06:47.972Z,9.70
2023-03-10T17:09:15.833Z,8.40
2023-03-10T17:11:51.905Z,10.50
2023-03-10T17:14:20.751Z,12.20
2023-03-10T17:16:48.275Z,11.10
2023-03-10T17:19:20.191Z,8.10
2023-03-10T17:21:49.309Z,9.40
2023-03-10T17:24:18.446Z,10.80
2023-03-10T17:26:45.716Z,11.10
2023-03-10T17:29:12.605Z,8.00
2023-03-10T17:31:39.499Z,12.20
2023-03-10T17:34:10.810Z,13.80
2023-03-10T17:36:37.875Z,9.80
2023-03-10T17:39:06.197Z,12.40
2023-03-10T17:41:34.733Z,11.20
2023-03-10T17:44:01.444Z,12.50
2023-03-10T17:46:29.573Z,14.90
2023-03-10T17:48:57.300Z,12.60
2023-03-10T17:51:26.859Z,12.50
2023-03-10T17:53:54.516Z,13.50
2023-03-10T17:56:22.147Z,8.80
2023-03-10T17:58:49.422Z,13.60
2023-03-10T18:01:19.124Z,15.90
2023-03-10T18:03:48.317Z,14.10
2023-03-10T18:06:16.585Z,14.70
2023-03-10T18:08:43.624Z,11.90
2023-03-10T18:11:10.487Z,15.00
2023-03-10T18:13:37.231Z,16.20
2023-03-10T18:16:05.198Z,17.00
2023-03-10T18:18:32.133Z,14.80
2023-03-10T18:20:58.820Z,16.70
2023-03-10T18:23:25.467Z,15.70
2023-03-10T18:25:52.215Z,18.90
2023-03-10T18:28:19.928Z,10.60
2023-03-10T18:30:51.950Z,17.50
2023-03-10T18:33:19.285Z,15.30
2023-03-10T18:35:46.878Z,12.50
2023-03-10T18:38:15.184Z,18.10
2023-03-10T18:40:42.971Z,19.80
2023-03-10T18:43:09.707Z,15.30
2023-03-10T18:45:39.466Z,15.40
2023-03-10T18:48:07.596Z,16.60
2023-03-10T18:50:34.247Z,15.90
2023-03-10T18:53:00.938Z,13.50
2023-03-10T18:55:27.984Z,15.70
2023-03-10T18:57:54.680Z,13.70
2023-03-10T19:00:22.336Z,13.80
2023-03-10T19:02:51.686Z,14.70
2023-03-10T19:05:18.362Z,16.80
2023-03-10T19:07:45.264Z,19.00
2023-03-10T19:10:14.525Z,14.40
2023-03-10T19:12:41.216Z,13.90
2023-03-10T19:15:09.276Z,13.20
2023-03-10T19:17:37.605Z,14.10
2023-03-10T19:20:07.895Z,13.90
2023-03-10T19:22:36.124Z,13.00
2023-03-10T19:25:04.098Z,14.30
2023-03-10T19:27:30.970Z,12.20
2023-03-10T19:29:57.975Z,12.40
2023-03-10T19:32:25.843Z,12.30
2023-03-10T19:34:52.528Z,13.70
2023-03-10T19:37:19.321Z,11.90
2023-03-10T19:39:45.918Z,12.30
2023-03-10T19:42:12.494Z,12.20
2023-03-10T19:44:39.479Z,12.20
2023-03-10T19:47:06.884Z,9.60
2023-03-10T19:49:34.352Z,11.40
2023-03-10T19:52:01.679Z,10.30
2023-03-10T19:54:28.403Z,12.20
2023-03-10T19:56:54.995Z,10.70
2023-03-10T19:59:21.682Z,9.20
2023-03-10T20:01:49.418Z,9.20
2023-03-10T20:04:16.234Z,10.80
2023-03-10T20:06:42.905Z,9.70
2023-03-10T20:09:10.745Z,10.00
2023-03-10T20:11:38.971Z,11.80
2023-03-10T20:14:06.239Z,9.90
2023-03-10T20:16:33.557Z,9.00
2023-03-10T20:19:00.481Z,8.00
2023-03-10T20:21:27.668Z,10.40
2023-03-10T20:23:56.137Z,9.40
2023-03-10T20:26:24.029Z,10.30
2023-03-10T20:28:51.049Z,9.60
2023-03-10T20:31:21.293Z,9.80
2023-03-10T20:33:48.873Z,14.00
2023-03-10T20:36:16.163Z,13.70
2023-03-10T20:38:46.619Z,11.50
2023-03-10T20:41:15.325Z,12.70
2023-03-10T20:43:43.195Z,9.80
2023-03-10T20:46:10.916Z,11.50
2023-03-10T20:48:38.267Z,7.30
2023-03-10T20:51:05.960Z,9.10
2023-03-10T20:53:33.682Z,8.60
2023-03-10T20:56:00.678Z,8.50
2023-03-10T20:58:27.921Z,8.00
2023-03-10T21:00:54.717Z,7.50
2023-03-10T21:03:27.077Z,7.20
2023-03-10T21:05:54.305Z,6.00
2023-03-10T21:08:20.940Z,6.70
2023-03-10T21:10:49.316Z,7.00
2023-03-10T21:13:16.329Z,7.20
2023-03-10T21:15:42.988Z,6.00
2023-03-10T21:18:09.649Z,6.10
2023-03-10T21:20:36.367Z,8.10
2023-03-10T21:23:03.057Z,6.90
2023-03-10T21:25:29.676Z,6.00
2023-03-10T21:27:58.992Z,6.00
2023-03-10T21:30:28.847Z,5.60
2023-03-10T21:32:58.778Z,5.80
2023-03-10T21:35:27.615Z,5.30
2023-03-10T21:37:55.640Z,5.70
2023-03-10T21:40:24.393Z,5.00
2023-03-10T21:42:51.186Z,5.30
2023-03-10T21:45:21.517Z,6.00
2023-03-10T21:47:48.442Z,5.00
2023-03-10T21:50:16.211Z,5.00
2023-03-10T21:52:43.210Z,5.10
2023-03-10T21:55:21.502Z,5.50
2023-03-10T21:57:48.560Z,5.10
2023-03-10T22:00:17.185Z,5.20
2023-03-10T22:02:43.792Z,4.90
2023-03-10T22:05:14.389Z,5.00
2023-03-10T22:07:42.124Z,5.00
2023-03-10T22:10:10.403Z,5.50
2023-03-10T22:12:37.786Z,4.40
2023-03-10T22:15:06.762Z,4.50
2023-03-10T22:17:33.993Z,4.80
2023-03-10T22:20:01.826Z,4.60
2023-03-10T22:22:28.466Z,3.60
2023-03-10T22:24:55.108Z,5.20
2023-03-10T22:27:21.790Z,4.50
2023-03-10T22:29:48.405Z,4.70
2023-03-10T22:32:15.288Z,4.40
2023-03-10T22:34:42.282Z,4.70
2023-03-10T22:37:10.335Z,4.10
2023-03-10T22:39:38.200Z,4.50
2023-03-10T22:42:05.061Z,5.00
2023-03-10T22:44:37.884Z,4.40
2023-03-10T22:47:06.117Z,4.10
2023-03-10T22:49:33.153Z,4.60
2023-03-10T22:52:00.257Z,4.80
2023-03-10T22:54:30.425Z,5.00
2023-03-10T22:56:56.979Z,4.60
2023-03-10T22:59:23.657Z,5.00
2023-03-10T23:01:50.670Z,4.40
2023-03-10T23:04:17.344Z,4.50
2023-03-10T23:06:43.996Z,4.90
2023-03-10T23:09:10.930Z,4.20
2023-03-10T23:11:38.181Z,4.30
2023-03-10T23:14:04.825Z,4.20
2023-03-10T23:16:36.383Z,4.00
2023-03-10T23:19:06.578Z,4.70
2023-03-10T23:21:35.204Z,4.70
2023-03-10T23:24:01.909Z,5.00
2023-03-10T23:26:30.290Z,4.60
2023-03-10T23:28:57.680Z,4.00
2023-03-10T23:31:24.440Z,4.40
2023-03-10T23:33:51.633Z,5.20
2023-03-10T23:36:18.516Z,4.00
2023-03-10T23:38:45.244Z,4.40
2023-03-10T23:41:11.921Z,4.50
2023-03-10T23:43:38.939Z,4.00
2023-03-10T23:46:07.594Z,3.30
2023-03-10T23:48:35.597Z,3.00
2023-03-10T23:51:02.923Z,3.00
2023-03-10T23:53:30.014Z,3.30
2023-03-10T23:56:00.207Z,3.10
2023-03-10T23:58:28.143Z,2.60
